Time;durP1;ratioP1;P1;durP2;ratioP2;P2;SDS_P1;SDS_P2;PMS_P1;PMS_P2;Temp;Humidity;BMP_temperature;BMP_pressure;BME280_temperature;BME280_humidity;BME280_pressure;Samples;Min_cycle;Max_cycle;Signal;HPM_P1;HPM_P2
2023/06/15 00:00:09;;;;;;;3.60;2.33;;;;;;;;;;5072921;28;20186;-51
2023/06/15 00:02:35;;;;;;;2.83;2.50;;;;;;;;;;5073077;28;20255;-50
2023/06/15 00:05:01;;;;;;;2.77;2.47;;;;;;;;;;5072838;28;20220;-50
2023/06/15 00:07:27;;;;;;;4.10;2.17;;;;;;;;;;5073021;28;20407;-50
2023/06/15 00:09:54;;;;;;;5.33;2.30;;;;;;;;;;5072747;28;20225;-50
2023/06/15 00:12:20;;;;;;;3.40;2.30;;;;;;;;;;5072798;28;20202;-50
2023/06/15 00:14:46;;;;;;;3.80;2.50;;;;;;;;;;5072421;28;20230;-50
2023/06/15 00:17:14;;;;;;;2.63;2.43;;;;;;;;;;5072484;28;20246;-51
2023/06/15 00:19:41;;;;;;;4.30;2.40;;;;;;;;;;5072380;28;20211;-50
2023/06/15 00:22:15;;;;;;;4.00;2.27;;;;;;;;;;5072617;28;20229;-50
2023/06/15 00:24:41;;;;;;;3.90;2.30;;;;;;;;;;5072195;28;20267;-50
2023/06/15 00:27:08;;;;;;;3.00;2.13;;;;;;;;;;5072514;28;20723;-50
2023/06/15 00:29:34;;;;;;;2.83;2.57;;;;;;;;;;5072382;28;20209;-50
2023/06/15 00:32:00;;;;;;;3.10;2.40;;;;;;;;;;5072239;28;20208;-50
2023/06/15 00:34:26;;;;;;;3.27;2.40;;;;;;;;;;5072079;28;20209;-50
2023/06/15 00:36:52;;;;;;;3.70;2.60;;;;;;;;;;5072215;28;20669;-50
2023/06/15 00:39:18;;;;;;;5.40;2.87;;;;;;;;;;5072253;28;20202;-50
2023/06/15 00:41:45;;;;;;;3.73;2.57;;;;;;;;;;5071910;28;20207;-50
2023/06/15 00:44:12;;;;;;;2.53;2.30;;;;;;;;;;5072010;28;20195;-50
2023/06/15 00:46:39;;;;;;;2.50;2.30;;;;;;;;;;5071921;28;20198;-51
2023/06/15 00:49:05;;;;;;;2.50;2.30;;;;;;;;;;5072129;28;20211;-50
2023/06/15 00:51:31;;;;;;;3.27;2.40;;;;;;;;;;5071810;28;20217;-50
2023/06/15 00:53:58;;;;;;;3.30;2.50;;;;;;;;;;5071739;28;20679;-50
2023/06/15 00:56:24;;;;;;;4.40;2.80;;;;;;;;;;5071757;28;20226;-50
2023/06/15 00:58:50;;;;;;;3.33;2.53;;;;;;;;;;5071995;28;20201;-50
2023/06/15 01:01:18;;;;;;;3.27;2.30;;;;;;;;;;5071705;28;20187;-50
2023/06/15 01:03:44;;;;;;;2.87;2.37;;;;;;;;;;5071465;28;20197;-51
2023/06/15 01:06:13;;;;;;;2.97;2.67;;;;;;;;;;5071629;28;20223;-50
2023/06/15 01:08:40;;;;;;;3.17;2.17;;;;;;;;;;5070641;28;20200;-50
2023/06/15 01:11:06;;;;;;;3.17;2.50;;;;;;;;;;5071712;28;20226;-50
2023/06/15 01:13:32;;;;;;;2.80;2.30;;;;;;;;;;5071473;28;20211;-50
2023/06/15 01:16:00;;;;;;;3.27;2.60;;;;;;;;;;5071362;28;20227;-50
2023/06/15 01:18:29;;;;;;;2.50;2.30;;;;;;;;;;5071294;28;20540;-50
2023/06/15 01:20:56;;;;;;;3.03;2.73;;;;;;;;;;5071496;28;20250;-50
2023/06/15 01:23:25;;;;;;;2.83;2.53;;;;;;;;;;5071530;28;20196;-50
2023/06/15 01:26:00;;;;;;;2.90;2.60;;;;;;;;;;5071364;28;20235;-50
2023/06/15 01:28:30;;;;;;;3.80;2.63;;;;;;;;;;5071315;28;20329;-51
2023/06/15 01:30:56;;;;;;;2.80;2.40;;;;;;;;;;5071097;28;20663;-50
2023/06/15 01:33:22;;;;;;;3.00;2.47;;;;;;;;;;5071437;28;20554;-50
2023/06/15 01:35:48;;;;;;;3.57;2.40;;;;;;;;;;5071289;28;20690;-50
2023/06/15 01:38:15;;;;;;;4.13;2.50;;;;;;;;;;5071219;28;20230;-50
2023/06/15 01:40:43;;;;;;;3.90;2.73;;;;;;;;;;5071110;28;20295;-50
2023/06/15 01:43:11;;;;;;;4.83;2.50;;;;;;;;;;5071303;28;20627;-50
2023/06/15 01:45:38;;;;;;;4.10;2.57;;;;;;;;;;5071138;28;20192;-50
2023/06/15 01:48:04;;;;;;;2.97;2.40;;;;;;;;;;5071370;28;20291;-50
2023/06/15 01:50:31;;;;;;;3.10;2.80;;;;;;;;;;5070998;28;20771;-50
2023/06/15 01:52:57;;;;;;;2.87;2.63;;;;;;;;;;5071111;28;20302;-50
2023/06/15 01:55:24;;;;;;;2.67;2.40;;;;;;;;;;5070928;28;20315;-50
2023/06/15 01:57:50;;;;;;;4.63;2.60;;;;;;;;;;5071260;28;20200;-50
2023/06/15 02:00:18;;;;;;;3.07;2.40;;;;;;;;;;5069731;28;20195;-50
2023/06/15 02:02:44;;;;;;;4.13;2.57;;;;;;;;;;5070876;28;20878;-50
2023/06/15 02:05:10;;;;;;;2.70;2.33;;;;;;;;;;5070952;28;20235;-50
2023/06/15 02:07:36;;;;;;;2.90;2.60;;;;;;;;;;5071029;28;20203;-50
2023/06/15 02:10:02;;;;;;;4.50;2.50;;;;;;;;;;5071021;28;20195;-50
2023/06/15 02:12:28;;;;;;;3.53;2.47;;;;;;;;;;5070925;28;20210;-50
2023/06/15 02:14:55;;;;;;;4.00;2.73;;;;;;;;;;5070837;28;20211;-50
2023/06/15 02:17:24;;;;;;;4.53;2.90;;;;;;;;;;5071053;28;20200;-50
2023/06/15 02:19:50;;;;;;;3.03;2.60;;;;;;;;;;5072303;28;20278;-50
2023/06/15 02:22:16;;;;;;;4.70;3.00;;;;;;;;;;5074897;28;20196;-50
2023/06/15 02:24:42;;;;;;;3.10;2.70;;;;;;;;;;5074502;28;20681;-50
2023/06/15 02:27:08;;;;;;;2.83;2.63;;;;;;;;;;5074713;28;20221;-50
2023/06/15 02:29:34;;;;;;;3.50;2.57;;;;;;;;;;5074664;28;20208;-50
2023/06/15 02:32:00;;;;;;;2.80;2.60;;;;;;;;;;5074551;28;20195;-50
2023/06/15 02:34:28;;;;;;;3.30;2.60;;;;;;;;;;5074379;28;20207;-50
2023/06/15 02:36:54;;;;;;;3.23;2.83;;;;;;;;;;5074391;28;20220;-50
2023/06/15 02:39:20;;;;;;;3.10;2.80;;;;;;;;;;5074634;28;20602;-50
2023/06/15 02:41:46;;;;;;;3.80;2.80;;;;;;;;;;5074283;28;20200;-51
2023/06/15 02:44:14;;;;;;;3.20;2.60;;;;;;;;;;5074386;28;20730;-51
2023/06/15 02:46:40;;;;;;;3.57;3.10;;;;;;;;;;5074149;28;20230;-51
2023/06/15 02:49:06;;;;;;;3.87;3.10;;;;;;;;;;5074577;28;20235;-50
2023/06/15 02:51:34;;;;;;;2.80;2.50;;;;;;;;;;5074463;28;20301;-51
2023/06/15 02:54:00;;;;;;;4.23;2.80;;;;;;;;;;5074185;28;20275;-51
2023/06/15 02:56:29;;;;;;;3.73;2.80;;;;;;;;;;5073976;28;20323;-51
2023/06/15 02:58:55;;;;;;;2.90;2.70;;;;;;;;;;5074004;28;20241;-51
2023/06/15 03:01:21;;;;;;;2.77;2.53;;;;;;;;;;5074148;28;20203;-50
2023/06/15 03:03:47;;;;;;;3.77;2.97;;;;;;;;;;5073655;28;20209;-51
2023/06/15 03:06:14;;;;;;;6.07;2.80;;;;;;;;;;5073435;28;20207;-50
2023/06/15 03:08:42;;;;;;;4.73;3.07;;;;;;;;;;5073186;28;20229;-51
2023/06/15 03:11:08;;;;;;;3.20;2.90;;;;;;;;;;5074009;28;20215;-51
2023/06/15 03:13:35;;;;;;;3.10;2.80;;;;;;;;;;5073889;28;20701;-51
2023/06/15 03:16:07;;;;;;;4.50;2.60;;;;;;;;;;5073455;28;20231;-51
2023/06/15 03:18:33;;;;;;;3.47;2.70;;;;;;;;;;5073833;28;20195;-51
2023/06/15 03:20:59;;;;;;;5.00;2.87;;;;;;;;;;5073759;28;20223;-50
2023/06/15 03:23:25;;;;;;;3.23;2.93;;;;;;;;;;5073625;28;20230;-51
2023/06/15 03:25:52;;;;;;;3.30;3.00;;;;;;;;;;5073293;28;20232;-52
2023/06/15 03:28:19;;;;;;;3.90;3.10;;;;;;;;;;5073748;28;20396;-50
2023/06/15 03:30:46;;;;;;;3.33;2.93;;;;;;;;;;5072681;28;20733;-49
2023/06/15 03:33:13;;;;;;;3.53;3.23;;;;;;;;;;5072986;28;20225;-49
2023/06/15 03:35:39;;;;;;;6.33;3.27;;;;;;;;;;5073219;28;20681;-50
2023/06/15 03:38:08;;;;;;;7.37;3.23;;;;;;;;;;5073486;28;20269;-49
2023/06/15 03:40:37;;;;;;;3.83;2.90;;;;;;;;;;5073436;28;20274;-50
2023/06/15 03:43:04;;;;;;;6.00;3.47;;;;;;;;;;5073480;28;20215;-51
2023/06/15 03:45:30;;;;;;;3.83;3.03;;;;;;;;;;5073271;28;20200;-50
2023/06/15 03:47:56;;;;;;;3.27;2.97;;;;;;;;;;5073265;28;20269;-50
2023/06/15 03:50:22;;;;;;;4.80;3.30;;;;;;;;;;5073231;28;20206;-51
2023/06/15 03:52:48;;;;;;;3.57;2.93;;;;;;;;;;5073276;28;20191;-50
2023/06/15 03:55:14;;;;;;;6.90;3.43;;;;;;;;;;5073084;28;20222;-50
2023/06/15 03:57:40;;;;;;;4.33;3.03;;;;;;;;;;5072889;28;20287;-50
2023/06/15 04:00:09;;;;;;;3.27;2.97;;;;;;;;;;5073089;28;20200;-50
2023/06/15 04:02:35;;;;;;;4.00;3.03;;;;;;;;;;5072978;28;20206;-50
2023/06/15 04:05:03;;;;;;;5.63;3.37;;;;;;;;;;5072871;28;20289;-50
2023/06/15 04:07:29;;;;;;;3.97;2.60;;;;;;;;;;5072827;28;20195;-50
2023/06/15 04:09:55;;;;;;;4.93;2.83;;;;;;;;;;5072640;28;20371;-50
2023/06/15 04:12:21;;;;;;;3.13;2.77;;;;;;;;;;5072923;28;20286;-50
2023/06/15 04:14:47;;;;;;;4.20;3.07;;;;;;;;;;5072472;28;20219;-50
2023/06/15 04:17:15;;;;;;;4.30;3.00;;;;;;;;;;5072596;28;20361;-50
2023/06/15 04:19:41;;;;;;;3.50;3.20;;;;;;;;;;5072420;28;20261;-50
2023/06/15 04:22:07;;;;;;;4.10;2.90;;;;;;;;;;5072675;28;20199;-50
2023/06/15 04:24:33;;;;;;;6.10;3.40;;;;;;;;;;5072263;28;20640;-49
2023/06/15 04:27:00;;;;;;;4.03;3.00;;;;;;;;;;5072457;28;20202;-50
2023/06/15 04:29:30;;;;;;;4.70;3.07;;;;;;;;;;5072282;28;20286;-50
2023/06/15 04:31:57;;;;;;;3.20;2.90;;;;;;;;;;5072175;28;20592;-50
2023/06/15 04:34:26;;;;;;;4.17;3.07;;;;;;;;;;5072318;28;20246;-50
2023/06/15 04:36:52;;;;;;;3.67;3.33;;;;;;;;;;5072187;28;20235;-50
2023/06/15 04:39:18;;;;;;;5.40;3.20;;;;;;;;;;5072241;28;20192;-51
2023/06/15 04:41:44;;;;;;;5.37;3.37;;;;;;;;;;5072027;28;20733;-50
2023/06/15 04:44:10;;;;;;;6.03;3.00;;;;;;;;;;5071775;28;20196;-51
2023/06/15 04:46:39;;;;;;;5.23;2.90;;;;;;;;;;5071948;28;20206;-50
2023/06/15 04:49:06;;;;;;;5.90;3.50;;;;;;;;;;5072020;28;20674;-50
2023/06/15 04:51:34;;;;;;;3.43;3.13;;;;;;;;;;5071955;28;20571;-51
2023/06/15 04:54:00;;;;;;;3.57;3.27;;;;;;;;;;5072053;28;20211;-50
2023/06/15 04:56:26;;;;;;;4.30;3.23;;;;;;;;;;5071637;28;20599;-50
2023/06/15 04:58:52;;;;;;;3.50;3.20;;;;;;;;;;5071763;28;20293;-50
2023/06/15 05:01:18;;;;;;;4.87;3.27;;;;;;;;;;5071805;28;20200;-51
2023/06/15 05:03:45;;;;;;;7.80;3.40;;;;;;;;;;5071532;28;20197;-51
2023/06/15 05:06:11;;;;;;;3.73;3.23;;;;;;;;;;5071664;28;20224;-50
2023/06/15 05:08:39;;;;;;;4.43;3.27;;;;;;;;;;5071577;28;20192;-51
2023/06/15 05:11:05;;;;;;;4.63;3.40;;;;;;;;;;5071686;28;20211;-50
2023/06/15 05:13:31;;;;;;;4.67;3.17;;;;;;;;;;5071394;28;20200;-50
2023/06/15 05:15:57;;;;;;;5.13;3.20;;;;;;;;;;5070863;28;20274;-50
2023/06/15 05:18:23;;;;;;;4.40;3.20;;;;;;;;;;5071191;28;20213;-51
2023/06/15 05:20:49;;;;;;;5.20;3.10;;;;;;;;;;5071194;28;20185;-50
2023/06/15 05:23:15;;;;;;;4.03;2.60;;;;;;;;;;5071329;28;20210;-50
2023/06/15 05:25:43;;;;;;;5.43;3.17;;;;;;;;;;5071035;28;20233;-50
2023/06/15 05:28:08;;;;;;;3.90;3.00;;;;;;;;;;5071326;28;20212;-50
2023/06/15 05:30:34;;;;;;;4.33;3.10;;;;;;;;;;5071194;28;20202;-51
2023/06/15 05:33:00;;;;;;;5.07;3.40;;;;;;;;;;5071024;28;20230;-51
2023/06/15 05:35:26;;;;;;;6.03;3.30;;;;;;;;;;5070784;28;20273;-50
2023/06/15 05:37:52;;;;;;;5.07;3.43;;;;;;;;;;5071199;28;20229;-50
2023/06/15 05:40:19;;;;;;;3.77;3.23;;;;;;;;;;5071309;28;20233;-50
2023/06/15 05:42:46;;;;;;;3.93;3.53;;;;;;;;;;5071068;28;20214;-50
2023/06/15 05:45:12;;;;;;;3.83;2.60;;;;;;;;;;5070977;28;20232;-54
2023/06/15 05:47:38;;;;;;;3.23;2.70;;;;;;;;;;5070906;28;20210;-54
2023/06/15 05:50:04;;;;;;;5.83;3.47;;;;;;;;;;5071315;28;20195;-54
2023/06/15 05:52:30;;;;;;;4.00;3.20;;;;;;;;;;5070980;28;20198;-54
2023/06/15 05:54:56;;;;;;;3.30;2.70;;;;;;;;;;5074369;28;20228;-54
2023/06/15 05:57:22;;;;;;;5.43;3.10;;;;;;;;;;5077834;28;20198;-54
2023/06/15 05:59:49;;;;;;;5.90;3.23;;;;;;;;;;5077654;28;20604;-54
2023/06/15 06:02:15;;;;;;;8.60;3.33;;;;;;;;;;5077547;28;20211;-54
2023/06/15 06:04:41;;;;;;;3.77;2.93;;;;;;;;;;5077545;28;20306;-55
2023/06/15 06:07:08;;;;;;;7.13;3.10;;;;;;;;;;5077779;28;20199;-54
2023/06/15 06:09:34;;;;;;;4.87;3.10;;;;;;;;;;5077573;28;20203;-54
2023/06/15 06:12:00;;;;;;;4.07;3.17;;;;;;;;;;5077623;28;20191;-54
2023/06/15 06:14:26;;;;;;;3.77;3.30;;;;;;;;;;5077605;28;20211;-54
2023/06/15 06:16:54;;;;;;;4.80;3.07;;;;;;;;;;5077292;28;20224;-55
2023/06/15 06:19:20;;;;;;;11.50;3.20;;;;;;;;;;5077715;28;20232;-55
2023/06/15 06:21:46;;;;;;;4.40;2.77;;;;;;;;;;5077337;28;20199;-54
2023/06/15 06:24:12;;;;;;;4.10;2.93;;;;;;;;;;5077240;28;20334;-55
2023/06/15 06:26:38;;;;;;;4.77;2.83;;;;;;;;;;5077173;28;20680;-55
2023/06/15 06:29:04;;;;;;;4.63;2.83;;;;;;;;;;5077700;28;20198;-51
2023/06/15 06:31:30;;;;;;;3.80;2.97;;;;;;;;;;5077204;28;20200;-50
2023/06/15 06:33:57;;;;;;;4.20;2.80;;;;;;;;;;5077388;28;20253;-50
2023/06/15 06:36:23;;;;;;;3.27;2.73;;;;;;;;;;5077304;28;20234;-50
2023/06/15 06:38:49;;;;;;;4.13;2.83;;;;;;;;;;5077385;28;20188;-50
2023/06/15 06:41:15;;;;;;;3.60;2.67;;;;;;;;;;5077385;28;20705;-50
2023/06/15 06:43:41;;;;;;;3.03;2.63;;;;;;;;;;5077143;28;20227;-50
2023/06/15 06:46:07;;;;;;;4.83;2.83;;;;;;;;;;5077384;28;20213;-50
2023/06/15 06:48:33;;;;;;;3.20;2.90;;;;;;;;;;5077306;28;20195;-50
2023/06/15 06:51:01;;;;;;;5.17;2.90;;;;;;;;;;5077368;28;20200;-50
2023/06/15 06:53:27;;;;;;;5.37;2.80;;;;;;;;;;5077240;28;20210;-50
2023/06/15 06:55:53;;;;;;;3.30;2.63;;;;;;;;;;5077129;28;20584;-50
2023/06/15 06:58:19;;;;;;;6.33;3.00;;;;;;;;;;5077325;28;20207;-50
2023/06/15 07:00:45;;;;;;;3.63;2.87;;;;;;;;;;5077008;28;20204;-50
2023/06/15 07:03:11;;;;;;;3.37;2.67;;;;;;;;;;5077031;28;20717;-50
2023/06/15 07:05:38;;;;;;;4.50;3.03;;;;;;;;;;5076408;28;20208;-50
2023/06/15 07:08:05;;;;;;;3.13;2.50;;;;;;;;;;5074112;28;20211;-51
2023/06/15 07:10:31;;;;;;;4.63;2.70;;;;;;;;;;5073812;28;20197;-50
2023/06/15 07:12:57;;;;;;;5.87;3.00;;;;;;;;;;5073768;28;20197;-50
2023/06/15 07:15:26;;;;;;;5.27;2.80;;;;;;;;;;5073595;28;20312;-50
2023/06/15 07:17:52;;;;;;;6.47;3.00;;;;;;;;;;5073650;28;20279;-51
2023/06/15 07:20:18;;;;;;;5.73;2.60;;;;;;;;;;5073688;28;20351;-51
2023/06/15 07:22:44;;;;;;;4.87;2.53;;;;;;;;;;5073484;28;20196;-51
2023/06/15 07:25:11;;;;;;;4.87;3.13;;;;;;;;;;5073378;28;20275;-50
2023/06/15 07:27:38;;;;;;;6.37;2.80;;;;;;;;;;5073479;28;20276;-50
2023/06/15 07:30:04;;;;;;;3.67;2.63;;;;;;;;;;5073588;28;20197;-50
2023/06/15 07:32:30;;;;;;;5.30;3.10;;;;;;;;;;5073345;28;20211;-51
2023/06/15 07:34:56;;;;;;;3.63;2.80;;;;;;;;;;5073264;28;20327;-51
2023/06/15 07:37:22;;;;;;;7.20;2.77;;;;;;;;;;5073478;28;20227;-51
2023/06/15 07:39:49;;;;;;;4.83;2.80;;;;;;;;;;5073290;28;20632;-51
2023/06/15 07:42:16;;;;;;;7.30;2.90;;;;;;;;;;5073297;28;20293;-51
2023/06/15 07:44:42;;;;;;;6.37;2.80;;;;;;;;;;5073008;28;20210;-51
2023/06/15 07:47:10;;;;;;;6.03;3.00;;;;;;;;;;5073485;28;20269;-51
2023/06/15 07:49:36;;;;;;;3.43;2.50;;;;;;;;;;5073186;28;20197;-51
2023/06/15 07:52:02;;;;;;;3.57;2.67;;;;;;;;;;5073198;28;20219;-51
2023/06/15 07:54:28;;;;;;;3.70;2.50;;;;;;;;;;5073068;28;20210;-51
2023/06/15 07:56:54;;;;;;;4.70;2.50;;;;;;;;;;5072815;28;20279;-51
2023/06/15 07:59:21;;;;;;;3.93;2.50;;;;;;;;;;5073051;28;20289;-51
2023/06/15 08:01:47;;;;;;;3.47;2.70;;;;;;;;;;5072827;28;20203;-51
2023/06/15 08:04:15;;;;;;;5.37;2.70;;;;;;;;;;5072739;28;20633;-51
2023/06/15 08:06:41;;;;;;;4.03;2.67;;;;;;;;;;5072904;28;20669;-51
2023/06/15 08:09:07;;;;;;;3.73;2.43;;;;;;;;;;5072869;28;20208;-51
2023/06/15 08:11:34;;;;;;;5.30;2.57;;;;;;;;;;5072724;28;20199;-51
2023/06/15 08:14:00;;;;;;;3.30;2.80;;;;;;;;;;5072531;28;20209;-51
2023/06/15 08:16:28;;;;;;;6.13;2.80;;;;;;;;;;5072284;28;20222;-51
2023/06/15 08:18:54;;;;;;;2.93;2.60;;;;;;;;;;5071924;28;20661;-51
2023/06/15 08:21:20;;;;;;;4.33;2.30;;;;;;;;;;5072495;28;20202;-51
2023/06/15 08:23:46;;;;;;;4.87;2.50;;;;;;;;;;5072102;28;20564;-53
2023/06/15 08:26:12;;;;;;;7.33;2.40;;;;;;;;;;5072467;28;20187;-51
2023/06/15 08:28:38;;;;;;;3.50;2.60;;;;;;;;;;5072331;28;20200;-52
2023/06/15 08:31:04;;;;;;;4.90;2.60;;;;;;;;;;5072466;28;20207;-52
2023/06/15 08:33:31;;;;;;;4.03;2.63;;;;;;;;;;5072092;28;20216;-51
2023/06/15 08:35:57;;;;;;;3.73;2.23;;;;;;;;;;5072164;28;20324;-52
2023/06/15 08:38:23;;;;;;;4.37;2.40;;;;;;;;;;5072098;28;20233;-51
2023/06/15 08:40:49;;;;;;;4.43;2.77;;;;;;;;;;5072193;28;20309;-52
2023/06/15 08:43:16;;;;;;;7.50;2.73;;;;;;;;;;5071955;28;20210;-51
2023/06/15 08:45:43;;;;;;;4.53;2.60;;;;;;;;;;5070635;28;20443;-51
2023/06/15 08:48:11;;;;;;;4.23;2.50;;;;;;;;;;5072005;28;20222;-52
2023/06/15 08:50:39;;;;;;;3.87;2.13;;;;;;;;;;5071880;28;20199;-51
2023/06/15 08:53:06;;;;;;;2.53;2.30;;;;;;;;;;5072169;28;20207;-52
2023/06/15 08:55:33;;;;;;;4.47;2.40;;;;;;;;;;5070752;28;20412;-51
2023/06/15 08:57:59;;;;;;;3.37;2.73;;;;;;;;;;5070628;28;20848;-52
2023/06/15 09:00:25;;;;;;;4.33;2.57;;;;;;;;;;5071855;28;20246;-51
2023/06/15 09:02:53;;;;;;;4.33;2.40;;;;;;;;;;5071926;28;20674;-51
2023/06/15 09:05:18;;;;;;;4.35;2.70;;;;;;;;;;5070552;28;20791;-51
2023/06/15 09:07:46;;;;;;;3.78;2.55;;;;;;;;;;5070323;28;20426;-51
2023/06/15 09:10:15;;;;;;;2.70;2.45;;;;;;;;;;5070261;28;20426;-52
2023/06/15 09:12:43;;;;;;;4.22;2.20;;;;;;;;;;5070195;28;20396;-52
2023/06/15 09:15:12;;;;;;;4.25;2.50;;;;;;;;;;5070210;28;20405;-52
2023/06/15 09:17:38;;;;;;;4.67;2.17;;;;;;;;;;5071167;28;20309;-52
2023/06/15 09:20:05;;;;;;;3.33;2.37;;;;;;;;;;5071772;28;20288;-52
2023/06/15 09:22:31;;;;;;;2.73;2.17;;;;;;;;;;5071338;28;20251;-52
2023/06/15 09:24:58;;;;;;;4.03;2.00;;;;;;;;;;5071130;28;20245;-52
2023/06/15 09:27:24;;;;;;;3.43;2.37;;;;;;;;;;5070991;28;20189;-52
2023/06/15 09:30:03;;;;;;;3.37;2.30;;;;;;;;;;5070466;28;20197;-52
2023/06/15 09:32:30;;;;;;;5.13;2.33;;;;;;;;;;5071302;28;20202;-51
2023/06/15 09:34:58;;;;;;;3.67;2.53;;;;;;;;;;5071046;28;20736;-52
2023/06/15 09:37:25;;;;;;;5.67;2.70;;;;;;;;;;5071109;28;20239;-52
2023/06/15 09:39:52;;;;;;;3.20;2.33;;;;;;;;;;5071337;28;20247;-50
2023/06/15 09:42:24;;;;;;;3.93;2.60;;;;;;;;;;5071450;28;20200;-51
2023/06/15 09:44:53;;;;;;;6.20;2.50;;;;;;;;;;5071199;28;20236;-50
2023/06/15 09:47:20;;;;;;;8.17;2.57;;;;;;;;;;5071231;28;20193;-51
2023/06/15 09:49:48;;;;;;;3.33;2.70;;;;;;;;;;5070962;28;20226;-51
2023/06/15 09:52:14;;;;;;;5.03;2.30;;;;;;;;;;5071321;28;20198;-50
2023/06/15 09:54:40;;;;;;;5.73;2.20;;;;;;;;;;5070968;28;20202;-53
2023/06/15 09:57:06;;;;;;;3.50;2.27;;;;;;;;;;5071039;28;20290;-53
2023/06/15 09:59:33;;;;;;;8.20;2.67;;;;;;;;;;5070901;28;20771;-54
2023/06/15 10:02:00;;;;;;;4.10;2.47;;;;;;;;;;5070963;28;20208;-54
2023/06/15 10:04:30;;;;;;;4.17;2.40;;;;;;;;;;5070704;28;20246;-53
2023/06/15 10:07:00;;;;;;;4.20;2.20;;;;;;;;;;5070719;28;20652;-53
2023/06/15 10:09:30;;;;;;;2.40;2.20;;;;;;;;;;5070943;28;20640;-54
2023/06/15 10:11:58;;;;;;;2.80;2.50;;;;;;;;;;5070788;28;20203;-53
2023/06/15 10:14:26;;;;;;;2.60;2.40;;;;;;;;;;5070973;28;20673;-53
2023/06/15 10:16:57;;;;;;;2.70;2.40;;;;;;;;;;5071062;28;20603;-53
2023/06/15 10:19:25;;;;;;;2.57;2.37;;;;;;;;;;5070793;28;20204;-54
2023/06/15 10:21:51;;;;;;;2.93;2.57;;;;;;;;;;5071045;28;20596;-53
2023/06/15 10:24:20;;;;;;;6.50;2.50;;;;;;;;;;5071721;28;20642;-53
2023/06/15 10:26:46;;;;;;;4.47;2.60;;;;;;;;;;5070736;28;20278;-53
2023/06/15 10:29:19;;;;;;;5.00;2.77;;;;;;;;;;5070626;28;20704;-53
2023/06/15 10:31:48;;;;;;;3.27;2.37;;;;;;;;;;5070751;28;20550;-54
2023/06/15 10:34:19;;;;;;;8.37;2.90;;;;;;;;;;5071102;28;20203;-52
2023/06/15 10:36:50;;;;;;;2.70;2.50;;;;;;;;;;5073209;28;20226;-53
2023/06/15 10:39:17;;;;;;;3.60;2.60;;;;;;;;;;5070677;28;20248;-53
2023/06/15 10:41:45;;;;;;;6.90;2.47;;;;;;;;;;5073109;28;20202;-53
2023/06/15 10:44:15;;;;;;;4.93;2.47;;;;;;;;;;5074741;28;20195;-52
2023/06/15 10:46:41;;;;;;;5.10;2.40;;;;;;;;;;5074189;28;20222;-53
2023/06/15 10:49:09;;;;;;;4.00;2.90;;;;;;;;;;5074469;28;20199;-53
2023/06/15 10:51:36;;;;;;;3.33;2.10;;;;;;;;;;5074445;28;20208;-52
2023/06/15 10:54:04;;;;;;;3.67;2.87;;;;;;;;;;5074134;28;20687;-52
2023/06/15 10:56:30;;;;;;;3.10;2.20;;;;;;;;;;5073786;28;20646;-52
2023/06/15 10:58:57;;;;;;;3.90;2.40;;;;;;;;;;5073699;28;20284;-52
2023/06/15 11:01:24;;;;;;;4.77;2.87;;;;;;;;;;5074054;28;20202;-52
2023/06/15 11:03:50;;;;;;;3.00;2.23;;;;;;;;;;5073936;28;20219;-53
2023/06/15 11:06:17;;;;;;;2.93;2.33;;;;;;;;;;5073935;28;20199;-53
2023/06/15 11:08:48;;;;;;;6.43;2.50;;;;;;;;;;5073756;28;20538;-53
2023/06/15 11:11:15;;;;;;;2.73;2.50;;;;;;;;;;5073768;28;20206;-53
2023/06/15 11:13:57;;;;;;;5.43;2.43;;;;;;;;;;5073605;28;20775;-52
2023/06/15 11:16:26;;;;;;;3.70;2.30;;;;;;;;;;5073680;28;20323;-53
2023/06/15 11:18:56;;;;;;;5.67;2.57;;;;;;;;;;5073618;28;20208;-52
2023/06/15 11:21:25;;;;;;;4.70;2.77;;;;;;;;;;5073863;28;20196;-53
2023/06/15 11:23:57;;;;;;;4.30;2.47;;;;;;;;;;5073606;28;20201;-54
2023/06/15 11:26:28;;;;;;;5.03;2.70;;;;;;;;;;5073669;28;20203;-54
2023/06/15 11:28:57;;;;;;;3.57;2.43;;;;;;;;;;5073203;28;20203;-52
2023/06/15 11:31:24;;;;;;;3.70;2.57;;;;;;;;;;5073474;28;20567;-51
2023/06/15 11:33:50;;;;;;;4.33;2.50;;;;;;;;;;5073350;28;20197;-52
2023/06/15 11:36:16;;;;;;;4.40;2.57;;;;;;;;;;5073286;28;20419;-53
2023/06/15 11:38:43;;;;;;;3.80;2.10;;;;;;;;;;5073144;28;20195;-52
2023/06/15 11:41:10;;;;;;;2.97;2.43;;;;;;;;;;5073319;28;20209;-53
2023/06/15 11:43:40;;;;;;;4.87;2.27;;;;;;;;;;5073285;28;20576;-54
2023/06/15 11:46:09;;;;;;;2.90;2.37;;;;;;;;;;5073426;28;20298;-53
2023/06/15 11:48:35;;;;;;;3.43;2.40;;;;;;;;;;5073190;28;20206;-54
2023/06/15 11:51:01;;;;;;;5.47;2.80;;;;;;;;;;5072722;28;20194;-52
2023/06/15 11:53:27;;;;;;;4.87;2.40;;;;;;;;;;5072044;28;20725;-52
2023/06/15 11:55:54;;;;;;;3.57;2.50;;;;;;;;;;5072930;28;20253;-53
2023/06/15 11:58:23;;;;;;;6.70;2.80;;;;;;;;;;5073007;28;20200;-52
2023/06/15 12:00:50;;;;;;;4.77;2.30;;;;;;;;;;5072977;28;20227;-53
2023/06/15 12:03:16;;;;;;;5.83;2.30;;;;;;;;;;5072924;28;20207;-53
2023/06/15 12:05:42;;;;;;;4.47;2.50;;;;;;;;;;5072652;28;20231;-53
2023/06/15 12:08:08;;;;;;;2.60;2.17;;;;;;;;;;5072855;28;20199;-53
2023/06/15 12:10:35;;;;;;;3.57;2.60;;;;;;;;;;5072890;28;20275;-54
2023/06/15 12:13:02;;;;;;;3.63;2.67;;;;;;;;;;5072629;28;20198;-51
2023/06/15 12:15:30;;;;;;;6.80;2.77;;;;;;;;;;5072505;28;20203;-51
2023/06/15 12:17:58;;;;;;;6.57;2.73;;;;;;;;;;5072323;28;20206;-52
2023/06/15 12:20:27;;;;;;;5.93;2.93;;;;;;;;;;5072521;28;20274;-52
2023/06/15 12:22:53;;;;;;;5.27;2.97;;;;;;;;;;5072424;28;20224;-52
2023/06/15 12:25:19;;;;;;;4.77;2.70;;;;;;;;;;5072402;28;20230;-52
2023/06/15 12:27:46;;;;;;;5.57;3.30;;;;;;;;;;5071894;28;20194;-53
2023/06/15 12:30:13;;;;;;;8.73;2.90;;;;;;;;;;5072213;28;20247;-52
2023/06/15 12:32:44;;;;;;;4.90;2.70;;;;;;;;;;5072081;28;20197;-53
2023/06/15 12:35:27;;;;;;;6.10;2.90;;;;;;;;;;5071980;28;20198;-51
2023/06/15 12:37:54;;;;;;;5.97;2.73;;;;;;;;;;5072003;28;20229;-52
2023/06/15 12:40:21;;;;;;;6.77;2.53;;;;;;;;;;5072247;28;20225;-53
2023/06/15 12:42:47;;;;;;;4.97;2.73;;;;;;;;;;5072021;28;20654;-51
2023/06/15 12:45:13;;;;;;;5.70;2.90;;;;;;;;;;5071887;28;20206;-52
2023/06/15 12:47:39;;;;;;;4.30;2.47;;;;;;;;;;5071681;28;20195;-52
2023/06/15 12:50:08;;;;;;;5.07;3.00;;;;;;;;;;5072166;28;20267;-52
2023/06/15 12:52:34;;;;;;;3.47;2.67;;;;;;;;;;5071845;28;20201;-52
2023/06/15 12:55:00;;;;;;;3.43;2.23;;;;;;;;;;5071698;28;20205;-52
2023/06/15 12:57:26;;;;;;;4.63;2.60;;;;;;;;;;5071564;28;20638;-52
2023/06/15 12:59:52;;;;;;;4.50;2.70;;;;;;;;;;5071771;28;20197;-51
2023/06/15 13:02:19;;;;;;;3.63;2.40;;;;;;;;;;5071599;28;20197;-52
2023/06/15 13:04:45;;;;;;;2.80;2.33;;;;;;;;;;5071457;28;20628;-52
2023/06/15 13:07:12;;;;;;;5.17;2.83;;;;;;;;;;5071493;28;20198;-56
2023/06/15 13:09:38;;;;;;;4.57;2.70;;;;;;;;;;5071659;28;20288;-55
2023/06/15 13:12:05;;;;;;;3.70;3.00;;;;;;;;;;5067813;28;20240;-50
2023/06/15 13:14:31;;;;;;;5.20;3.00;;;;;;;;;;5068754;28;20209;-51
2023/06/15 13:16:57;;;;;;;6.23;2.90;;;;;;;;;;5070928;28;20237;-50
2023/06/15 13:19:23;;;;;;;7.47;2.80;;;;;;;;;;5071186;28;20593;-51
2023/06/15 13:21:49;;;;;;;3.50;2.80;;;;;;;;;;5070106;28;20634;-51
2023/06/15 13:24:17;;;;;;;6.87;2.77;;;;;;;;;;5071043;28;20229;-52
2023/06/15 13:26:43;;;;;;;6.57;2.70;;;;;;;;;;5071143;28;20202;-51
2023/06/15 13:29:11;;;;;;;4.87;2.63;;;;;;;;;;5071317;28;20209;-51
2023/06/15 13:31:37;;;;;;;3.50;2.57;;;;;;;;;;5070956;28;20192;-51
2023/06/15 13:34:03;;;;;;;5.07;2.70;;;;;;;;;;5067771;28;20794;-52
2023/06/15 13:36:30;;;;;;;4.00;2.77;;;;;;;;;;5071195;28;20226;-52
2023/06/15 13:38:57;;;;;;;3.57;2.80;;;;;;;;;;5071094;28;20212;-53
2023/06/15 13:41:25;;;;;;;5.03;2.83;;;;;;;;;;5071620;28;20235;-53
2023/06/15 13:43:54;;;;;;;3.70;2.67;;;;;;;;;;5071342;28;20215;-54
2023/06/15 13:46:20;;;;;;;4.57;2.80;;;;;;;;;;5071354;28;20539;-54
2023/06/15 13:48:46;;;;;;;5.70;2.70;;;;;;;;;;5071040;28;20205;-54
2023/06/15 13:51:12;;;;;;;3.20;2.53;;;;;;;;;;5071174;28;20205;-54
2023/06/15 13:53:38;;;;;;;4.23;2.60;;;;;;;;;;5070938;28;20201;-54
2023/06/15 13:56:04;;;;;;;5.20;2.70;;;;;;;;;;5071458;28;20744;-54
2023/06/15 13:58:32;;;;;;;2.60;2.40;;;;;;;;;;5071002;28;20281;-54
2023/06/15 14:00:58;;;;;;;3.33;2.57;;;;;;;;;;5070899;28;20432;-54
2023/06/15 14:03:24;;;;;;;5.70;2.90;;;;;;;;;;5070975;28;20300;-54
2023/06/15 14:05:50;;;;;;;4.47;2.60;;;;;;;;;;5070939;28;20599;-54
2023/06/15 14:08:16;;;;;;;3.67;2.60;;;;;;;;;;5070728;28;20705;-53
2023/06/15 14:10:42;;;;;;;4.47;2.63;;;;;;;;;;5070765;28;20209;-53
2023/06/15 14:13:08;;;;;;;3.63;2.90;;;;;;;;;;5070908;28;20294;-54
2023/06/15 14:15:36;;;;;;;3.53;2.70;;;;;;;;;;5071797;28;20197;-53
2023/06/15 14:18:02;;;;;;;2.87;2.57;;;;;;;;;;5074619;28;20224;-53
2023/06/15 14:20:28;;;;;;;4.37;2.47;;;;;;;;;;5074615;28;20576;-53
2023/06/15 14:22:54;;;;;;;5.97;2.63;;;;;;;;;;5074568;28;20254;-53
2023/06/15 14:25:20;;;;;;;5.83;2.80;;;;;;;;;;5074924;28;20270;-54
2023/06/15 14:27:47;;;;;;;2.80;2.40;;;;;;;;;;5074524;28;20227;-53
2023/06/15 14:30:13;;;;;;;3.53;2.60;;;;;;;;;;5074850;28;20201;-53
2023/06/15 14:32:40;;;;;;;3.93;2.80;;;;;;;;;;5074486;28;20201;-53
2023/06/15 14:35:07;;;;;;;5.57;2.47;;;;;;;;;;5074683;28;20211;-53
2023/06/15 14:37:33;;;;;;;7.00;2.80;;;;;;;;;;5074360;28;20230;-54
2023/06/15 14:39:59;;;;;;;3.30;2.40;;;;;;;;;;5074121;28;20201;-53